Antimilos — SVBY6 — position and weather

sailwx.info

Track history (hours):
 
Tides and Currents Weather Stations Pressure Air Temp Water Temp Dewpoint Dewpoint Depression Visibility Wind Speed Wind Dir Waves Ship Positions

Antimilos

Last reported at 2017-Aug-25 20:49 UTC. Time now 2017-Sep-24 05:14 UTC.
Position N 34°47' W 015°38'.
Warning: this ship's position is 29 days out of date.

Length 228 m; draft 10.9 m.

Type: Tanker. MMSI: 241315000.

Date/timePositionNaut miles runAvg speedWind from/ knotsBaromVisibWave heightAir tempDewpointWater temp
2017-Aug-25 20:49N 34°47' W 015°38'412.9
2017-Aug-25 20:31N 34°48' W 015°34'1313.3
2017-Aug-25 19:34N 34°50' W 015°19'113.8
2017-Aug-25 19:29N 34°50' W 015°17'613.7
2017-Aug-25 19:01N 34°52' W 015°09'713.7
2017-Aug-25 18:30N 34°53' W 015°01'713.4
2017-Aug-25 18:00N 34°54' W 014°53'713.2
2017-Aug-25 17:28N 34°55' W 014°44'1113.5
2017-Aug-25 16:40N 34°56' W 014°31'213.6
2017-Aug-25 16:30N 34°57' W 014°29'713.3
2017-Aug-25 16:01N 34°58' W 014°21'712.9
2017-Aug-25 15:27N 34°59' W 014°12'1513.3
2017-Aug-25 14:20N 35°02' W 013°54'1113.5
2017-Aug-25 13:30N 35°04' W 013°41'1013.1
2017-Aug-25 12:46N 35°05' W 013°29'1613.3
2017-Aug-25 11:36N 35°08' W 013°11'413.5
2017-Aug-25 11:19N 35°09' W 013°06'413.4
2017-Aug-25 11:00N 35°09' W 013°01'713.3
2017-Aug-25 10:30N 35°11' W 012°53'713.7
2017-Aug-25 10:00N 35°12' W 012°45'1913.6
2017-Aug-25 08:35N 35°15' W 012°21'9113.7
2017-Aug-25 01:56N 35°30' W 010°32'714.1
2017-Aug-25 01:25N 35°31' W 010°23'614.2
2017-Aug-25 00:59N 35°32' W 010°15'914.0
2017-Aug-25 00:23N 35°34' W 010°05'514.0
2017-Aug-25 00:00N 35°35' W 009°59'714.0
2017-Aug-24 23:30N 35°36' W 009°50'813.8
2017-Aug-24 22:54N 35°37' W 009°40'1013.8
2017-Aug-24 22:09N 35°39' W 009°28'214.1
2017-Aug-24 21:59N 35°39' W 009°25'713.9
2017-Aug-24 21:28N 35°41' W 009°16'714.1
2017-Aug-24 21:00N 35°42' W 009°08'714.0
2017-Aug-24 20:30N 35°43' W 008°60'713.9
2017-Aug-24 20:00N 35°44' W 008°51'713.7
2017-Aug-24 19:29N 35°45' W 008°42'613.7
2017-Aug-24 19:00N 35°46' W 008°35'813.2
2017-Aug-24 18:26N 35°48' W 008°25'613.1
2017-Aug-24 17:56N 35°49' W 008°17'3013.5
2017-Aug-24 15:41N 35°54' W 007°41'1013.4
2017-Aug-24 14:56N 35°55' W 007°28'713.7
2017-Aug-24 14:25N 35°57' W 007°20'713.6
2017-Aug-24 13:56N 35°58' W 007°12'913.2
2017-Aug-24 13:15N 35°58' W 007°01'3113.2
2017-Aug-24 10:54N 35°58' W 006°22'513.4
2017-Aug-24 10:29N 35°58' W 006°15'613.2
2017-Aug-24 10:00N 35°57' W 006°08'612.9
2017-Aug-24 09:30N 35°57' W 005°60'613.0
2017-Aug-24 09:00N 35°57' W 005°52'1311.9
2017-Aug-24 07:53N 35°57' W 005°35'411.5
2017-Aug-24 07:30N 35°59' W 005°30'713.2
2017-Aug-24 07:00N 36°01' W 005°22'613.1
2017-Aug-24 06:31N 36°02' W 005°14'13812.4
2017-Aug-23 19:20N 36°09' W 002°23'712.8
2017-Aug-23 18:49N 36°10' W 002°15'4512.9
2017-Aug-23 15:19N 36°20' W 001°21'413.3
2017-Aug-23 15:00N 36°21' W 001°16'2513.2
2017-Aug-23 13:07N 36°28' W 000°46'413.1
2017-Aug-23 12:50N 36°30' W 000°42'512.9
2017-Aug-23 12:26N 36°31' W 000°36'1113.2
2017-Aug-23 11:36N 36°34' W 000°22'713.4
2017-Aug-23 11:03N 36°36' W 000°14'113.5
2017-Aug-23 10:57N 36°37' W 000°12'713.4
2017-Aug-23 10:24N 36°39' W 000°04'513.3
2017-Aug-23 10:00N 36°41' E 000°03'813.3
2017-Aug-23 09:23N 36°44' E 000°12'513.4
2017-Aug-23 09:00N 36°45' E 000°18'713.5
2017-Aug-23 08:30N 36°46' E 000°27'713.4
2017-Aug-23 08:00N 36°48' E 000°35'713.2
2017-Aug-23 07:30N 36°50' E 000°43'712.5
2017-Aug-23 06:58N 36°52' E 000°51'512.0
2017-Aug-23 06:30N 36°54' E 000°57'613.0
2017-Aug-23 06:00N 36°56' E 001°05'713.4
2017-Aug-23 05:30N 36°58' E 001°13'714.0
2017-Aug-23 05:00N 37°00' E 001°21'714.1
2017-Aug-23 04:29N 37°03' E 001°30'713.9
2017-Aug-23 04:00N 37°04' E 001°38'713.9
2017-Aug-23 03:30N 37°06' E 001°46'713.6
2017-Aug-23 03:00N 37°08' E 001°54'713.6
2017-Aug-23 02:30N 37°10' E 002°03'713.6
2017-Aug-23 02:00N 37°12' E 002°11'713.6
2017-Aug-23 01:30N 37°14' E 002°19'713.6
2017-Aug-23 01:00N 37°16' E 002°27'713.6
2017-Aug-23 00:30N 37°18' E 002°35'713.6
2017-Aug-23 00:00N 37°20' E 002°44'6013.2
2017-Aug-22 19:25N 37°38' E 003°56'613.7
2017-Aug-22 19:00N 37°39' E 004°03'714.2
2017-Aug-22 18:29N 37°40' E 004°12'714.4
2017-Aug-22 18:00N 37°40' E 004°21'714.1
2017-Aug-22 17:30N 37°41' E 004°30'713.9
2017-Aug-22 17:00N 37°42' E 004°39'713.5
2017-Aug-22 16:30N 37°42' E 004°47'1613.5
2017-Aug-22 15:17N 37°43' E 005°08'613.5
2017-Aug-22 14:49N 37°43' E 005°16'413.4
2017-Aug-22 14:29N 37°43' E 005°22'34612.6
2017-Aug-21 10:57N 36°60' E 012°33'512.3
2017-Aug-21 10:30N 36°58' E 012°40'1312.2
2017-Aug-21 09:29N 36°54' E 012°55'612.4
2017-Aug-21 09:00N 36°52' E 013°02'2012.1
2017-Aug-21 07:20N 36°46' E 013°25'412.3
2017-Aug-21 07:00N 36°44' E 013°30'612.3
2017-Aug-21 06:30N 36°43' E 013°38'612.4
2017-Aug-21 06:00N 36°41' E 013°45'612.4
2017-Aug-21 05:30N 36°39' E 013°52'612.3
2017-Aug-21 05:00N 36°37' E 013°60'612.0
2017-Aug-21 04:30N 36°35' E 014°07'611.8
2017-Aug-21 04:00N 36°33' E 014°14'611.7
2017-Aug-21 03:30N 36°31' E 014°21'611.6
2017-Aug-21 03:00N 36°30' E 014°28'611.7
2017-Aug-21 02:30N 36°28' E 014°34'611.7
2017-Aug-21 01:57N 36°26' E 014°42'511.6
2017-Aug-21 01:30N 36°24' E 014°48'611.9
2017-Aug-21 01:00N 36°22' E 014°55'1912.4
2017-Aug-20 23:29N 36°19' E 015°18'4012.8
2017-Aug-20 20:21N 36°18' E 016°08'8812.4
2017-Aug-20 13:13N 36°14' E 017°58'312.2
2017-Aug-20 13:00N 36°13' E 018°01'812.1
2017-Aug-20 12:22N 36°13' E 018°10'1011.7
2017-Aug-20 11:29N 36°13' E 018°23'510.3
2017-Aug-20 11:00N 36°13' E 018°29'7 9.0
2017-Aug-20 10:14N 36°12' E 018°38'512.4
2017-Aug-20 09:51N 36°12' E 018°44'612.7
2017-Aug-20 09:21N 36°12' E 018°52'612.8
2017-Aug-20 08:52N 36°11' E 018°59'3612.8
2017-Aug-20 06:02N 36°10' E 019°44'013.0
2017-Aug-20 06:00N 36°10' E 019°45'1112.5
2017-Aug-20 05:08N 36°09' E 019°58'612.3
2017-Aug-20 04:40N 36°09' E 020°05'212.4
2017-Aug-20 04:30N 36°09' E 020°08'3112.5
2017-Aug-20 02:03N 36°07' E 020°46'113.0
2017-Aug-20 02:00N 36°07' E 020°46'612.8
2017-Aug-20 01:30N 36°07' E 020°54'2312.8
2017-Aug-19 23:44N 36°06' E 021°22'312.8
2017-Aug-19 23:29N 36°06' E 021°26'131 9.5
2017-Aug-19 09:40N 37°19' E 023°42'212.5
2017-Aug-19 09:31N 37°21' E 023°42'612.5
2017-Aug-19 09:00N 37°27' E 023°41'612.9
2017-Aug-19 08:31N 37°34' E 023°42'713.4
2017-Aug-19 08:00N 37°40' E 023°41'713.1
2017-Aug-19 07:30N 37°46' E 023°38'612.4
2017-Aug-19 07:01N 37°51' E 023°33'3 5.2
2017-Aug-19 06:30N 37°53' E 023°30'0 0.2
2017-Aug-19 06:00N 37°52' E 023°30'0 0.0
2017-Aug-19 05:30N 37°52' E 023°30'0 0.1
2017-Aug-19 05:00N 37°52' E 023°30'0 0.0
2017-Aug-19 04:30N 37°52' E 023°30'0 0.0
2017-Aug-19 04:00N 37°52' E 023°30'0 0.0
2017-Aug-19 03:30N 37°52' E 023°30'0 0.0
2017-Aug-19 03:00N 37°53' E 023°30'0 0.0
2017-Aug-19 02:27N 37°52' E 023°30'0 0.0
2017-Aug-19 01:57N 37°52' E 023°30'0 0.0
2017-Aug-19 01:30N 37°52' E 023°30'0 0.1
2017-Aug-19 01:00N 37°52' E 023°30'0 0.1
2017-Aug-19 00:30N 37°52' E 023°30'0 0.0
2017-Aug-19 00:00N 37°52' E 023°30'0 0.0
2017-Aug-18 23:30N 37°52' E 023°30'0 0.0
2017-Aug-18 23:00N 37°53' E 023°30'0 0.0
2017-Aug-18 22:30N 37°53' E 023°30'0 0.0
2017-Aug-18 22:00N 37°52' E 023°30'0 0.0
2017-Aug-18 21:30N 37°52' E 023°30'0 0.0
2017-Aug-18 20:57N 37°53' E 023°30'0 0.0
2017-Aug-18 20:30N 37°53' E 023°30'0 0.0
2017-Aug-18 20:00N 37°52' E 023°30'0 0.0
2017-Aug-18 19:30N 37°52' E 023°30'0 0.0
2017-Aug-18 19:00N 37°52' E 023°30'0 0.1
2017-Aug-18 18:30N 37°52' E 023°30'0 0.1
2017-Aug-18 18:00N 37°53' E 023°30'0 0.0
2017-Aug-18 17:30N 37°52' E 023°30'0 0.0
2017-Aug-18 17:00N 37°52' E 023°30'0 0.0
2017-Aug-18 16:27N 37°52' E 023°30'0 0.0
2017-Aug-18 16:00N 37°52' E 023°30'0 0.1
2017-Aug-18 15:30N 37°53' E 023°30'0 0.1
2017-Aug-18 15:00N 37°52' E 023°30'0 0.1
2017-Aug-18 14:30N 37°53' E 023°30'0 0.0
2017-Aug-18 13:30N 37°53' E 023°30'0 0.0
2017-Aug-18 13:00N 37°53' E 023°30'0 0.0
2017-Aug-18 12:30N 37°53' E 023°30'0 0.0
2017-Aug-18 12:00N 37°53' E 023°30'0 0.0
2017-Aug-18 11:30N 37°53' E 023°30'0 0.1
2017-Aug-18 11:00N 37°53' E 023°30'0 0.0
2017-Aug-18 10:30N 37°53' E 023°30'0 0.1
2017-Aug-18 10:00N 37°52' E 023°30'0 0.1
2017-Aug-18 09:30N 37°53' E 023°30'0 0.0
2017-Aug-18 09:00N 37°52' E 023°30'0 0.0
2017-Aug-18 08:30N 37°52' E 023°30'0 0.0
2017-Aug-18 08:00N 37°52' E 023°30'0 0.0
2017-Aug-18 07:30N 37°52' E 023°30'0 0.0
2017-Aug-18 07:00N 37°52' E 023°30'0 0.1
2017-Aug-18 06:30N 37°52' E 023°30'0 0.0
2017-Aug-18 06:00N 37°52' E 023°30'0 0.1
2017-Aug-18 05:30N 37°52' E 023°30'0 0.0
2017-Aug-18 05:00N 37°52' E 023°30'0 0.1
2017-Aug-18 04:30N 37°52' E 023°30'0 0.0
2017-Aug-18 04:00N 37°52' E 023°30'0 0.0
2017-Aug-18 03:30N 37°52' E 023°30'0 0.0
2017-Aug-18 03:00N 37°52' E 023°30'0 0.0
2017-Aug-18 02:30N 37°52' E 023°30'0 0.0
2017-Aug-18 02:00N 37°52' E 023°30'0 0.0
2017-Aug-18 01:30N 37°52' E 023°30'0 0.0
2017-Aug-18 00:57N 37°52' E 023°30'0 0.0
2017-Aug-18 00:30N 37°52' E 023°30'0 0.0
2017-Aug-17 23:57N 37°52' E 023°30'0 0.1
2017-Aug-17 23:30N 37°52' E 023°30'0 0.1
2017-Aug-17 23:00N 37°53' E 023°30'0 0.1
2017-Aug-17 22:30N 37°53' E 023°30'0 0.0
2017-Aug-17 22:00N 37°53' E 023°30'0 0.1
2017-Aug-17 21:30N 37°53' E 023°30'0 0.1
2017-Aug-17 21:00N 37°53' E 023°30'0 0.1
2017-Aug-17 20:30N 37°53' E 023°30'0 0.1
2017-Aug-17 20:00N 37°52' E 023°30'0 0.1
2017-Aug-17 19:27N 37°52' E 023°30'0 0.1
2017-Aug-17 19:00N 37°53' E 023°30'0 0.0
2017-Aug-17 18:30N 37°52' E 023°30'0 0.0
2017-Aug-17 18:00N 37°52' E 023°30'0 0.0
2017-Aug-17 17:30N 37°52' E 023°30'0 0.1
2017-Aug-17 17:00N 37°53' E 023°30'0 0.0
2017-Aug-17 16:30N 37°53' E 023°30'0 0.0
2017-Aug-17 16:00N 37°53' E 023°30'0 0.0
2017-Aug-17 15:30N 37°53' E 023°30'0 0.0
2017-Aug-17 15:00N 37°53' E 023°30'0 0.0
2017-Aug-17 14:30N 37°53' E 023°30'0 0.1
2017-Aug-17 14:00N 37°53' E 023°30'0 0.0
2017-Aug-17 13:30N 37°53' E 023°30'0 0.0
2017-Aug-17 13:00N 37°53' E 023°30'0 0.1
2017-Aug-17 12:31N 37°53' E 023°30'0 0.1
2017-Aug-17 12:00N 37°52' E 023°30'0 0.1
2017-Aug-17 11:30N 37°53' E 023°30'0 0.4
2017-Aug-17 11:01N 37°53' E 023°30'2 3.2
2017-Aug-17 10:31N 37°51' E 023°30'3 5.0
2017-Aug-17 10:01N 37°52' E 023°33'4 8.9
2017-Aug-17 09:31N 37°56' E 023°36'4 7.8
2017-Aug-17 09:01N 37°58' E 023°33'4 7.3
2017-Aug-17 08:30N 38°02' E 023°31'1 1.0
2017-Aug-17 07:59N 38°02' E 023°31'0 0.0
2017-Aug-17 07:29N 38°02' E 023°31'0 0.0
2017-Aug-17 06:59N 38°02' E 023°31'0 0.0
2017-Aug-17 06:29N 38°02' E 023°31'0 0.0
2017-Aug-17 05:59N 38°02' E 023°31'0 0.0
2017-Aug-17 05:29N 38°02' E 023°31'0 0.0
2017-Aug-17 04:59N 38°02' E 023°31'0 0.0
2017-Aug-17 04:29N 38°02' E 023°31'0 0.0
2017-Aug-17 03:59N 38°02' E 023°31'0 0.0
2017-Aug-17 03:29N 38°02' E 023°31'0 0.0
2017-Aug-17 02:59N 38°02' E 023°31'0 0.0
2017-Aug-17 02:29N 38°02' E 023°31'0 0.0
2017-Aug-17 01:59N 38°02' E 023°31'0 0.0
2017-Aug-17 01:29N 38°02' E 023°31'0 0.0
2017-Aug-17 00:59N 38°02' E 023°31'0 0.0
2017-Aug-17 00:29N 38°02' E 023°31'0 0.0
2017-Aug-16 23:59N 38°02' E 023°31'0 0.0
2017-Aug-16 23:29N 38°02' E 023°31'0 0.0
2017-Aug-16 22:59N 38°02' E 023°31'0 0.0
2017-Aug-16 22:29N 38°02' E 023°31'0 0.0
2017-Aug-16 21:59N 38°02' E 023°31'0 0.0
2017-Aug-16 21:29N 38°02' E 023°31'0 0.0
2017-Aug-16 20:59N 38°02' E 023°31'0 0.0
2017-Aug-16 20:29N 38°02' E 023°31'0 0.0
2017-Aug-16 19:59N 38°02' E 023°31'0 0.0
2017-Aug-16 19:29N 38°02' E 023°31'0 0.0
2017-Aug-16 18:59N 38°02' E 023°31'0 0.0
2017-Aug-16 18:29N 38°02' E 023°31'0 0.0
2017-Aug-16 17:59N 38°02' E 023°31'0 0.0
2017-Aug-16 17:29N 38°02' E 023°31'0 0.0
2017-Aug-16 16:59N 38°02' E 023°31'0 0.0
2017-Aug-16 16:29N 38°02' E 023°31'0 0.0
2017-Aug-16 15:59N 38°02' E 023°31'0 0.0
2017-Aug-16 15:29N 38°02' E 023°31'0 0.0
2017-Aug-16 14:59N 38°02' E 023°31'0 0.0
2017-Aug-16 14:29N 38°02' E 023°31'0 0.0
2017-Aug-16 13:59N 38°02' E 023°31'0 0.0
2017-Aug-16 13:29N 38°02' E 023°31'0 0.0
2017-Aug-16 12:59N 38°02' E 023°31'0 0.0
2017-Aug-16 12:29N 38°02' E 023°31'0 0.0
2017-Aug-16 11:59N 38°02' E 023°31'0 0.0
2017-Aug-16 11:29N 38°02' E 023°31'0 0.0
2017-Aug-16 10:59N 38°02' E 023°31'0 0.0
2017-Aug-16 10:29N 38°02' E 023°31'0 0.0
2017-Aug-16 09:59N 38°02' E 023°31'0 0.0
2017-Aug-16 09:29N 38°02' E 023°31'0 0.0
2017-Aug-16 08:59N 38°02' E 023°31'0 0.0
2017-Aug-16 08:29N 38°02' E 023°31'0 0.0
2017-Aug-16 07:59N 38°02' E 023°31'0 0.0
2017-Aug-16 07:29N 38°02' E 023°31'0 0.0
2017-Aug-16 06:59N 38°02' E 023°31'0 0.0
2017-Aug-16 06:29N 38°02' E 023°31'0 0.0
2017-Aug-16 05:59N 38°02' E 023°31'0 0.0
2017-Aug-16 05:29N 38°02' E 023°31'0 0.0
2017-Aug-16 04:59N 38°02' E 023°31'0 0.0
2017-Aug-16 04:29N 38°02' E 023°31'0 0.0
2017-Aug-16 03:59N 38°02' E 023°31'0 0.0
2017-Aug-16 03:29N 38°02' E 023°31'0 0.0
2017-Aug-16 02:59N 38°02' E 023°31'0 0.0
2017-Aug-16 02:29N 38°02' E 023°31'0 0.0
2017-Aug-16 01:59N 38°02' E 023°31'0 0.0
2017-Aug-16 01:29N 38°02' E 023°31'0 0.0
2017-Aug-16 00:59N 38°02' E 023°31'0 0.0
2017-Aug-16 00:29N 38°02' E 023°31'0 0.0
2017-Aug-15 23:59N 38°02' E 023°31'0 0.0
2017-Aug-15 23:29N 38°02' E 023°31'0 0.0
2017-Aug-15 22:59N 38°02' E 023°31'0 0.0
2017-Aug-15 22:29N 38°02' E 023°31'0 0.0
2017-Aug-15 21:56N 38°02' E 023°31'0 0.0
2017-Aug-15 21:29N 38°02' E 023°31'0 0.0
2017-Aug-15 20:59N 38°02' E 023°31'  
Track history (hours):
 
Tides and Currents Weather Stations Pressure Air Temp Water Temp Dewpoint Dewpoint Depression Visibility Wind Speed Wind Dir Waves Ship Positions

Antimilos

Last reported at 2017-Aug-25 20:49 UTC. Time now 2017-Sep-24 05:14 UTC.
Position N 34°47' W 015°38'.
Warning: this ship's position is 29 days out of date.

Length 228 m; draft 10.9 m.

Type: Tanker. MMSI: 241315000.

Date/timePositionNaut miles runAvg speedWind from/ knotsBaromVisibWave heightAir tempDewpointWater temp
2017-Aug-25 20:49N 34°47' W 015°38'412.9
2017-Aug-25 20:31N 34°48' W 015°34'1313.3
2017-Aug-25 19:34N 34°50' W 015°19'113.8
2017-Aug-25 19:29N 34°50' W 015°17'613.7
2017-Aug-25 19:01N 34°52' W 015°09'713.7
2017-Aug-25 18:30N 34°53' W 015°01'713.4
2017-Aug-25 18:00N 34°54' W 014°53'713.2
2017-Aug-25 17:28N 34°55' W 014°44'1113.5
2017-Aug-25 16:40N 34°56' W 014°31'213.6
2017-Aug-25 16:30N 34°57' W 014°29'713.3
2017-Aug-25 16:01N 34°58' W 014°21'712.9
2017-Aug-25 15:27N 34°59' W 014°12'1513.3
2017-Aug-25 14:20N 35°02' W 013°54'1113.5
2017-Aug-25 13:30N 35°04' W 013°41'1013.1
2017-Aug-25 12:46N 35°05' W 013°29'1613.3
2017-Aug-25 11:36N 35°08' W 013°11'413.5
2017-Aug-25 11:19N 35°09' W 013°06'413.4
2017-Aug-25 11:00N 35°09' W 013°01'713.3
2017-Aug-25 10:30N 35°11' W 012°53'713.7
2017-Aug-25 10:00N 35°12' W 012°45'1913.6
2017-Aug-25 08:35N 35°15' W 012°21'9113.7
2017-Aug-25 01:56N 35°30' W 010°32'714.1
2017-Aug-25 01:25N 35°31' W 010°23'614.2
2017-Aug-25 00:59N 35°32' W 010°15'914.0
2017-Aug-25 00:23N 35°34' W 010°05'514.0
2017-Aug-25 00:00N 35°35' W 009°59'714.0
2017-Aug-24 23:30N 35°36' W 009°50'813.8
2017-Aug-24 22:54N 35°37' W 009°40'1013.8
2017-Aug-24 22:09N 35°39' W 009°28'214.1
2017-Aug-24 21:59N 35°39' W 009°25'713.9
2017-Aug-24 21:28N 35°41' W 009°16'714.1
2017-Aug-24 21:00N 35°42' W 009°08'714.0
2017-Aug-24 20:30N 35°43' W 008°60'713.9
2017-Aug-24 20:00N 35°44' W 008°51'713.7
2017-Aug-24 19:29N 35°45' W 008°42'613.7
2017-Aug-24 19:00N 35°46' W 008°35'813.2
2017-Aug-24 18:26N 35°48' W 008°25'613.1
2017-Aug-24 17:56N 35°49' W 008°17'3013.5
2017-Aug-24 15:41N 35°54' W 007°41'1013.4
2017-Aug-24 14:56N 35°55' W 007°28'713.7
2017-Aug-24 14:25N 35°57' W 007°20'713.6
2017-Aug-24 13:56N 35°58' W 007°12'913.2
2017-Aug-24 13:15N 35°58' W 007°01'3113.2
2017-Aug-24 10:54N 35°58' W 006°22'513.4
2017-Aug-24 10:29N 35°58' W 006°15'613.2
2017-Aug-24 10:00N 35°57' W 006°08'612.9
2017-Aug-24 09:30N 35°57' W 005°60'613.0
2017-Aug-24 09:00N 35°57' W 005°52'1311.9
2017-Aug-24 07:53N 35°57' W 005°35'411.5
2017-Aug-24 07:30N 35°59' W 005°30'713.2
2017-Aug-24 07:00N 36°01' W 005°22'613.1
2017-Aug-24 06:31N 36°02' W 005°14'13812.4
2017-Aug-23 19:20N 36°09' W 002°23'712.8
2017-Aug-23 18:49N 36°10' W 002°15'4512.9
2017-Aug-23 15:19N 36°20' W 001°21'413.3
2017-Aug-23 15:00N 36°21' W 001°16'2513.2
2017-Aug-23 13:07N 36°28' W 000°46'413.1
2017-Aug-23 12:50N 36°30' W 000°42'512.9
2017-Aug-23 12:26N 36°31' W 000°36'1113.2
2017-Aug-23 11:36N 36°34' W 000°22'713.4
2017-Aug-23 11:03N 36°36' W 000°14'113.5
2017-Aug-23 10:57N 36°37' W 000°12'713.4
2017-Aug-23 10:24N 36°39' W 000°04'513.3
2017-Aug-23 10:00N 36°41' E 000°03'813.3
2017-Aug-23 09:23N 36°44' E 000°12'513.4
2017-Aug-23 09:00N 36°45' E 000°18'713.5
2017-Aug-23 08:30N 36°46' E 000°27'713.4
2017-Aug-23 08:00N 36°48' E 000°35'713.2
2017-Aug-23 07:30N 36°50' E 000°43'712.5
2017-Aug-23 06:58N 36°52' E 000°51'512.0
2017-Aug-23 06:30N 36°54' E 000°57'613.0
2017-Aug-23 06:00N 36°56' E 001°05'713.4
2017-Aug-23 05:30N 36°58' E 001°13'714.0
2017-Aug-23 05:00N 37°00' E 001°21'714.1
2017-Aug-23 04:29N 37°03' E 001°30'713.9
2017-Aug-23 04:00N 37°04' E 001°38'713.9
2017-Aug-23 03:30N 37°06' E 001°46'713.6
2017-Aug-23 03:00N 37°08' E 001°54'713.6
2017-Aug-23 02:30N 37°10' E 002°03'713.6
2017-Aug-23 02:00N 37°12' E 002°11'713.6
2017-Aug-23 01:30N 37°14' E 002°19'713.6
2017-Aug-23 01:00N 37°16' E 002°27'713.6
2017-Aug-23 00:30N 37°18' E 002°35'713.6
2017-Aug-23 00:00N 37°20' E 002°44'6013.2
2017-Aug-22 19:25N 37°38' E 003°56'613.7
2017-Aug-22 19:00N 37°39' E 004°03'714.2
2017-Aug-22 18:29N 37°40' E 004°12'714.4
2017-Aug-22 18:00N 37°40' E 004°21'714.1
2017-Aug-22 17:30N 37°41' E 004°30'713.9
2017-Aug-22 17:00N 37°42' E 004°39'713.5
2017-Aug-22 16:30N 37°42' E 004°47'1613.5
2017-Aug-22 15:17N 37°43' E 005°08'613.5
2017-Aug-22 14:49N 37°43' E 005°16'413.4
2017-Aug-22 14:29N 37°43' E 005°22'34612.6
2017-Aug-21 10:57N 36°60' E 012°33'512.3
2017-Aug-21 10:30N 36°58' E 012°40'1312.2
2017-Aug-21 09:29N 36°54' E 012°55'612.4
2017-Aug-21 09:00N 36°52' E 013°02'2012.1
2017-Aug-21 07:20N 36°46' E 013°25'412.3
2017-Aug-21 07:00N 36°44' E 013°30'612.3
2017-Aug-21 06:30N 36°43' E 013°38'612.4
2017-Aug-21 06:00N 36°41' E 013°45'612.4
2017-Aug-21 05:30N 36°39' E 013°52'612.3
2017-Aug-21 05:00N 36°37' E 013°60'612.0
2017-Aug-21 04:30N 36°35' E 014°07'611.8
2017-Aug-21 04:00N 36°33' E 014°14'611.7
2017-Aug-21 03:30N 36°31' E 014°21'611.6
2017-Aug-21 03:00N 36°30' E 014°28'611.7
2017-Aug-21 02:30N 36°28' E 014°34'611.7
2017-Aug-21 01:57N 36°26' E 014°42'511.6
2017-Aug-21 01:30N 36°24' E 014°48'611.9
2017-Aug-21 01:00N 36°22' E 014°55'1912.4
2017-Aug-20 23:29N 36°19' E 015°18'4012.8
2017-Aug-20 20:21N 36°18' E 016°08'8812.4
2017-Aug-20 13:13N 36°14' E 017°58'312.2
2017-Aug-20 13:00N 36°13' E 018°01'812.1
2017-Aug-20 12:22N 36°13' E 018°10'1011.7
2017-Aug-20 11:29N 36°13' E 018°23'510.3
2017-Aug-20 11:00N 36°13' E 018°29'7 9.0
2017-Aug-20 10:14N 36°12' E 018°38'512.4
2017-Aug-20 09:51N 36°12' E 018°44'612.7
2017-Aug-20 09:21N 36°12' E 018°52'612.8
2017-Aug-20 08:52N 36°11' E 018°59'3612.8
2017-Aug-20 06:02N 36°10' E 019°44'013.0
2017-Aug-20 06:00N 36°10' E 019°45'1112.5
2017-Aug-20 05:08N 36°09' E 019°58'612.3
2017-Aug-20 04:40N 36°09' E 020°05'212.4
2017-Aug-20 04:30N 36°09' E 020°08'3112.5
2017-Aug-20 02:03N 36°07' E 020°46'113.0
2017-Aug-20 02:00N 36°07' E 020°46'612.8
2017-Aug-20 01:30N 36°07' E 020°54'2312.8
2017-Aug-19 23:44N 36°06' E 021°22'312.8
2017-Aug-19 23:29N 36°06' E 021°26'131 9.5
2017-Aug-19 09:40N 37°19' E 023°42'212.5
2017-Aug-19 09:31N 37°21' E 023°42'612.5
2017-Aug-19 09:00N 37°27' E 023°41'612.9
2017-Aug-19 08:31N 37°34' E 023°42'713.4
2017-Aug-19 08:00N 37°40' E 023°41'713.1
2017-Aug-19 07:30N 37°46' E 023°38'612.4
2017-Aug-19 07:01N 37°51' E 023°33'3 5.2
2017-Aug-19 06:30N 37°53' E 023°30'0 0.2
2017-Aug-19 06:00N 37°52' E 023°30'0 0.0
2017-Aug-19 05:30N 37°52' E 023°30'0 0.1
2017-Aug-19 05:00N 37°52' E 023°30'0 0.0
2017-Aug-19 04:30N 37°52' E 023°30'0 0.0
2017-Aug-19 04:00N 37°52' E 023°30'0 0.0
2017-Aug-19 03:30N 37°52' E 023°30'0 0.0
2017-Aug-19 03:00N 37°53' E 023°30'0 0.0
2017-Aug-19 02:27N 37°52' E 023°30'0 0.0
2017-Aug-19 01:57N 37°52' E 023°30'0 0.0
2017-Aug-19 01:30N 37°52' E 023°30'0 0.1
2017-Aug-19 01:00N 37°52' E 023°30'0 0.1
2017-Aug-19 00:30N 37°52' E 023°30'0 0.0
2017-Aug-19 00:00N 37°52' E 023°30'0 0.0
2017-Aug-18 23:30N 37°52' E 023°30'0 0.0
2017-Aug-18 23:00N 37°53' E 023°30'0 0.0
2017-Aug-18 22:30N 37°53' E 023°30'0 0.0
2017-Aug-18 22:00N 37°52' E 023°30'0 0.0
2017-Aug-18 21:30N 37°52' E 023°30'0 0.0
2017-Aug-18 20:57N 37°53' E 023°30'0 0.0
2017-Aug-18 20:30N 37°53' E 023°30'0 0.0
2017-Aug-18 20:00N 37°52' E 023°30'0 0.0
2017-Aug-18 19:30N 37°52' E 023°30'0 0.0
2017-Aug-18 19:00N 37°52' E 023°30'0 0.1
2017-Aug-18 18:30N 37°52' E 023°30'0 0.1
2017-Aug-18 18:00N 37°53' E 023°30'0 0.0
2017-Aug-18 17:30N 37°52' E 023°30'0 0.0
2017-Aug-18 17:00N 37°52' E 023°30'0 0.0
2017-Aug-18 16:27N 37°52' E 023°30'0 0.0
2017-Aug-18 16:00N 37°52' E 023°30'0 0.1
2017-Aug-18 15:30N 37°53' E 023°30'0 0.1
2017-Aug-18 15:00N 37°52' E 023°30'0 0.1
2017-Aug-18 14:30N 37°53' E 023°30'0 0.0
2017-Aug-18 13:30N 37°53' E 023°30'0 0.0
2017-Aug-18 13:00N 37°53' E 023°30'0 0.0
2017-Aug-18 12:30N 37°53' E 023°30'0 0.0
2017-Aug-18 12:00N 37°53' E 023°30'0 0.0
2017-Aug-18 11:30N 37°53' E 023°30'0 0.1
2017-Aug-18 11:00N 37°53' E 023°30'0 0.0
2017-Aug-18 10:30N 37°53' E 023°30'0 0.1
2017-Aug-18 10:00N 37°52' E 023°30'0 0.1
2017-Aug-18 09:30N 37°53' E 023°30'0 0.0
2017-Aug-18 09:00N 37°52' E 023°30'0 0.0
2017-Aug-18 08:30N 37°52' E 023°30'0 0.0
2017-Aug-18 08:00N 37°52' E 023°30'0 0.0
2017-Aug-18 07:30N 37°52' E 023°30'0 0.0
2017-Aug-18 07:00N 37°52' E 023°30'0 0.1
2017-Aug-18 06:30N 37°52' E 023°30'0 0.0
2017-Aug-18 06:00N 37°52' E 023°30'0 0.1
2017-Aug-18 05:30N 37°52' E 023°30'0 0.0
2017-Aug-18 05:00N 37°52' E 023°30'0 0.1
2017-Aug-18 04:30N 37°52' E 023°30'0 0.0
2017-Aug-18 04:00N 37°52' E 023°30'0 0.0
2017-Aug-18 03:30N 37°52' E 023°30'0 0.0
2017-Aug-18 03:00N 37°52' E 023°30'0 0.0
2017-Aug-18 02:30N 37°52' E 023°30'0 0.0
2017-Aug-18 02:00N 37°52' E 023°30'0 0.0
2017-Aug-18 01:30N 37°52' E 023°30'0 0.0
2017-Aug-18 00:57N 37°52' E 023°30'0 0.0
2017-Aug-18 00:30N 37°52' E 023°30'0 0.0
2017-Aug-17 23:57N 37°52' E 023°30'0 0.1
2017-Aug-17 23:30N 37°52' E 023°30'0 0.1
2017-Aug-17 23:00N 37°53' E 023°30'0 0.1
2017-Aug-17 22:30N 37°53' E 023°30'0 0.0
2017-Aug-17 22:00N 37°53' E 023°30'0 0.1
2017-Aug-17 21:30N 37°53' E 023°30'0 0.1
2017-Aug-17 21:00N 37°53' E 023°30'0 0.1
2017-Aug-17 20:30N 37°53' E 023°30'0 0.1
2017-Aug-17 20:00N 37°52' E 023°30'0 0.1
2017-Aug-17 19:27N 37°52' E 023°30'0 0.1
2017-Aug-17 19:00N 37°53' E 023°30'0 0.0
2017-Aug-17 18:30N 37°52' E 023°30'0 0.0
2017-Aug-17 18:00N 37°52' E 023°30'0 0.0
2017-Aug-17 17:30N 37°52' E 023°30'0 0.1
2017-Aug-17 17:00N 37°53' E 023°30'0 0.0
2017-Aug-17 16:30N 37°53' E 023°30'0 0.0
2017-Aug-17 16:00N 37°53' E 023°30'0 0.0
2017-Aug-17 15:30N 37°53' E 023°30'0 0.0
2017-Aug-17 15:00N 37°53' E 023°30'0 0.0
2017-Aug-17 14:30N 37°53' E 023°30'0 0.1
2017-Aug-17 14:00N 37°53' E 023°30'0 0.0
2017-Aug-17 13:30N 37°53' E 023°30'0 0.0
2017-Aug-17 13:00N 37°53' E 023°30'0 0.1
2017-Aug-17 12:31N 37°53' E 023°30'0 0.1
2017-Aug-17 12:00N 37°52' E 023°30'0 0.1
2017-Aug-17 11:30N 37°53' E 023°30'0 0.4
2017-Aug-17 11:01N 37°53' E 023°30'2 3.2
2017-Aug-17 10:31N 37°51' E 023°30'3 5.0
2017-Aug-17 10:01N 37°52' E 023°33'4 8.9
2017-Aug-17 09:31N 37°56' E 023°36'4 7.8
2017-Aug-17 09:01N 37°58' E 023°33'4 7.3
2017-Aug-17 08:30N 38°02' E 023°31'1 1.0
2017-Aug-17 07:59N 38°02' E 023°31'0 0.0
2017-Aug-17 07:29N 38°02' E 023°31'0 0.0
2017-Aug-17 06:59N 38°02' E 023°31'0 0.0
2017-Aug-17 06:29N 38°02' E 023°31'0 0.0
2017-Aug-17 05:59N 38°02' E 023°31'0 0.0
2017-Aug-17 05:29N 38°02' E 023°31'0 0.0
2017-Aug-17 04:59N 38°02' E 023°31'0 0.0
2017-Aug-17 04:29N 38°02' E 023°31'0 0.0
2017-Aug-17 03:59N 38°02' E 023°31'0 0.0
2017-Aug-17 03:29N 38°02' E 023°31'0 0.0
2017-Aug-17 02:59N 38°02' E 023°31'0 0.0
2017-Aug-17 02:29N 38°02' E 023°31'0 0.0
2017-Aug-17 01:59N 38°02' E 023°31'0 0.0
2017-Aug-17 01:29N 38°02' E 023°31'0 0.0
2017-Aug-17 00:59N 38°02' E 023°31'0 0.0
2017-Aug-17 00:29N 38°02' E 023°31'0 0.0
2017-Aug-16 23:59N 38°02' E 023°31'0 0.0
2017-Aug-16 23:29N 38°02' E 023°31'0 0.0
2017-Aug-16 22:59N 38°02' E 023°31'0 0.0
2017-Aug-16 22:29N 38°02' E 023°31'0 0.0
2017-Aug-16 21:59N 38°02' E 023°31'0 0.0
2017-Aug-16 21:29N 38°02' E 023°31'0 0.0
2017-Aug-16 20:59N 38°02' E 023°31'0 0.0
2017-Aug-16 20:29N 38°02' E 023°31'0 0.0
2017-Aug-16 19:59N 38°02' E 023°31'0 0.0
2017-Aug-16 19:29N 38°02' E 023°31'0 0.0
2017-Aug-16 18:59N 38°02' E 023°31'0 0.0
2017-Aug-16 18:29N 38°02' E 023°31'0 0.0
2017-Aug-16 17:59N 38°02' E 023°31'0 0.0
2017-Aug-16 17:29N 38°02' E 023°31'0 0.0
2017-Aug-16 16:59N 38°02' E 023°31'0 0.0
2017-Aug-16 16:29N 38°02' E 023°31'0 0.0
2017-Aug-16 15:59N 38°02' E 023°31'0 0.0
2017-Aug-16 15:29N 38°02' E 023°31'0 0.0
2017-Aug-16 14:59N 38°02' E 023°31'0 0.0
2017-Aug-16 14:29N 38°02' E 023°31'0 0.0
2017-Aug-16 13:59N 38°02' E 023°31'0 0.0
2017-Aug-16 13:29N 38°02' E 023°31'0 0.0
2017-Aug-16 12:59N 38°02' E 023°31'0 0.0
2017-Aug-16 12:29N 38°02' E 023°31'0 0.0
2017-Aug-16 11:59N 38°02' E 023°31'0 0.0
2017-Aug-16 11:29N 38°02' E 023°31'0 0.0
2017-Aug-16 10:59N 38°02' E 023°31'0 0.0
2017-Aug-16 10:29N 38°02' E 023°31'0 0.0
2017-Aug-16 09:59N 38°02' E 023°31'0 0.0
2017-Aug-16 09:29N 38°02' E 023°31'0 0.0
2017-Aug-16 08:59N 38°02' E 023°31'0 0.0
2017-Aug-16 08:29N 38°02' E 023°31'0 0.0
2017-Aug-16 07:59N 38°02' E 023°31'0 0.0
2017-Aug-16 07:29N 38°02' E 023°31'0 0.0
2017-Aug-16 06:59N 38°02' E 023°31'0 0.0
2017-Aug-16 06:29N 38°02' E 023°31'0 0.0
2017-Aug-16 05:59N 38°02' E 023°31'0 0.0
2017-Aug-16 05:29N 38°02' E 023°31'0 0.0
2017-Aug-16 04:59N 38°02' E 023°31'0 0.0
2017-Aug-16 04:29N 38°02' E 023°31'0 0.0
2017-Aug-16 03:59N 38°02' E 023°31'0 0.0
2017-Aug-16 03:29N 38°02' E 023°31'0 0.0
2017-Aug-16 02:59N 38°02' E 023°31'0 0.0
2017-Aug-16 02:29N 38°02' E 023°31'0 0.0
2017-Aug-16 01:59N 38°02' E 023°31'0 0.0
2017-Aug-16 01:29N 38°02' E 023°31'0 0.0
2017-Aug-16 00:59N 38°02' E 023°31'0 0.0
2017-Aug-16 00:29N 38°02' E 023°31'0 0.0
2017-Aug-15 23:59N 38°02' E 023°31'0 0.0
2017-Aug-15 23:29N 38°02' E 023°31'0 0.0
2017-Aug-15 22:59N 38°02' E 023°31'0 0.0
2017-Aug-15 22:29N 38°02' E 023°31'0 0.0
2017-Aug-15 21:56N 38°02' E 023°31'0 0.0
2017-Aug-15 21:29N 38°02' E 023°31'0 0.0
2017-Aug-15 20:59N 38°02' E 023°31'  

Dump ship's entire track history